sensor_id;sensor_type;location;lat;lon;timestamp;P1;durP1;ratioP1;P2;durP2;ratioP2
29380;SDS011;16364;52.490;13.326;2023-07-13T00:00:25;2.60;;;2.10;;
29380;SDS011;16364;52.490;13.326;2023-07-13T00:02:50;5.90;;;2.70;;
29380;SDS011;16364;52.490;13.326;2023-07-13T00:05:19;2.63;;;2.20;;
29380;SDS011;16364;52.490;13.326;2023-07-13T00:07:44;3.43;;;2.13;;
29380;SDS011;16364;52.490;13.326;2023-07-13T00:10:11;3.27;;;2.20;;
29380;SDS011;16364;52.490;13.326;2023-07-13T00:12:37;2.20;;;2.00;;
29380;SDS011;16364;52.490;13.326;2023-07-13T00:15:07;2.10;;;2.00;;
29380;SDS011;16364;52.490;13.326;2023-07-13T00:17:32;4.20;;;2.20;;
29380;SDS011;16364;52.490;13.326;2023-07-13T00:19:58;3.47;;;2.10;;
29380;SDS011;16364;52.490;13.326;2023-07-13T00:22:24;5.57;;;2.10;;
29380;SDS011;16364;52.490;13.326;2023-07-13T00:24:51;3.03;;;2.77;;
29380;SDS011;16364;52.490;13.326;2023-07-13T00:27:16;3.13;;;1.83;;
29380;SDS011;16364;52.490;13.326;2023-07-13T00:32:35;4.90;;;2.10;;
29380;SDS011;16364;52.490;13.326;2023-07-13T00:35:01;1.77;;;1.67;;
29380;SDS011;16364;52.490;13.326;2023-07-13T00:37:28;2.23;;;2.03;;
29380;SDS011;16364;52.490;13.326;2023-07-13T00:39:53;4.07;;;2.20;;
29380;SDS011;16364;52.490;13.326;2023-07-13T00:42:19;2.57;;;2.00;;
29380;SDS011;16364;52.490;13.326;2023-07-13T00:45:04;2.17;;;2.00;;
29380;SDS011;16364;52.490;13.326;2023-07-13T00:47:29;2.00;;;1.80;;
29380;SDS011;16364;52.490;13.326;2023-07-13T00:49:54;2.07;;;1.77;;
29380;SDS011;16364;52.490;13.326;2023-07-13T00:52:19;2.40;;;2.20;;
29380;SDS011;16364;52.490;13.326;2023-07-13T00:54:45;2.20;;;1.93;;
29380;SDS011;16364;52.490;13.326;2023-07-13T00:57:12;2.10;;;1.90;;
29380;SDS011;16364;52.490;13.326;2023-07-13T00:59:39;1.83;;;1.70;;
29380;SDS011;16364;52.490;13.326;2023-07-13T01:02:05;2.20;;;1.70;;
29380;SDS011;16364;52.490;13.326;2023-07-13T01:04:30;2.10;;;1.90;;
29380;SDS011;16364;52.490;13.326;2023-07-13T01:06:56;3.10;;;2.00;;
29380;SDS011;16364;52.490;13.326;2023-07-13T01:09:22;2.63;;;2.00;;
29380;SDS011;16364;52.490;13.326;2023-07-13T01:11:47;2.13;;;1.90;;
29380;SDS011;16364;52.490;13.326;2023-07-13T01:14:13;2.00;;;1.83;;
29380;SDS011;16364;52.490;13.326;2023-07-13T01:16:39;2.83;;;2.30;;
29380;SDS011;16364;52.490;13.326;2023-07-13T01:19:07;2.50;;;1.70;;
29380;SDS011;16364;52.490;13.326;2023-07-13T01:21:36;2.20;;;2.00;;
29380;SDS011;16364;52.490;13.326;2023-07-13T01:24:07;2.23;;;2.00;;
29380;SDS011;16364;52.490;13.326;2023-07-13T01:26:33;3.20;;;2.27;;
29380;SDS011;16364;52.490;13.326;2023-07-13T01:28:58;3.07;;;2.77;;
29380;SDS011;16364;52.490;13.326;2023-07-13T01:31:24;2.37;;;2.17;;
29380;SDS011;16364;52.490;13.326;2023-07-13T01:33:49;2.33;;;2.00;;
29380;SDS011;16364;52.490;13.326;2023-07-13T01:36:14;2.93;;;2.00;;
29380;SDS011;16364;52.490;13.326;2023-07-13T01:38:39;2.57;;;2.20;;
29380;SDS011;16364;52.490;13.326;2023-07-13T01:41:04;3.00;;;2.37;;
29380;SDS011;16364;52.490;13.326;2023-07-13T01:43:30;2.43;;;2.20;;
29380;SDS011;16364;52.490;13.326;2023-07-13T01:45:55;2.30;;;2.13;;
29380;SDS011;16364;52.490;13.326;2023-07-13T01:48:20;3.43;;;2.17;;
29380;SDS011;16364;52.490;13.326;2023-07-13T01:50:47;2.83;;;2.20;;
29380;SDS011;16364;52.490;13.326;2023-07-13T01:53:12;3.17;;;2.20;;
29380;SDS011;16364;52.490;13.326;2023-07-13T01:55:37;2.20;;;1.93;;
29380;SDS011;16364;52.490;13.326;2023-07-13T01:58:03;2.57;;;2.40;;
29380;SDS011;16364;52.490;13.326;2023-07-13T02:00:28;4.97;;;2.50;;
29380;SDS011;16364;52.490;13.326;2023-07-13T02:02:53;2.30;;;2.10;;
29380;SDS011;16364;52.490;13.326;2023-07-13T02:05:18;3.13;;;2.30;;
29380;SDS011;16364;52.490;13.326;2023-07-13T02:07:44;2.57;;;2.30;;
29380;SDS011;16364;52.490;13.326;2023-07-13T02:10:10;5.03;;;2.63;;
29380;SDS011;16364;52.490;13.326;2023-07-13T02:12:35;2.63;;;2.43;;
29380;SDS011;16364;52.490;13.326;2023-07-13T02:15:01;2.30;;;2.10;;
29380;SDS011;16364;52.490;13.326;2023-07-13T02:17:26;4.23;;;3.10;;
29380;SDS011;16364;52.490;13.326;2023-07-13T02:19:52;2.93;;;2.63;;
29380;SDS011;16364;52.490;13.326;2023-07-13T02:22:17;2.40;;;2.20;;
29380;SDS011;16364;52.490;13.326;2023-07-13T02:24:42;3.43;;;2.10;;
29380;SDS011;16364;52.490;13.326;2023-07-13T02:27:07;2.80;;;2.60;;
29380;SDS011;16364;52.490;13.326;2023-07-13T02:29:33;2.80;;;2.20;;
29380;SDS011;16364;52.490;13.326;2023-07-13T02:31:58;3.10;;;2.37;;
29380;SDS011;16364;52.490;13.326;2023-07-13T02:34:23;5.40;;;2.37;;
29380;SDS011;16364;52.490;13.326;2023-07-13T02:36:48;3.00;;;2.80;;
29380;SDS011;16364;52.490;13.326;2023-07-13T02:39:14;3.50;;;2.00;;
29380;SDS011;16364;52.490;13.326;2023-07-13T02:41:39;2.10;;;2.00;;
29380;SDS011;16364;52.490;13.326;2023-07-13T02:44:04;2.30;;;2.20;;
29380;SDS011;16364;52.490;13.326;2023-07-13T02:46:30;2.83;;;2.63;;
29380;SDS011;16364;52.490;13.326;2023-07-13T02:48:56;4.70;;;3.77;;
29380;SDS011;16364;52.490;13.326;2023-07-13T02:51:21;3.97;;;3.57;;
29380;SDS011;16364;52.490;13.326;2023-07-13T02:53:46;4.00;;;3.37;;
29380;SDS011;16364;52.490;13.326;2023-07-13T02:56:12;5.23;;;2.67;;
29380;SDS011;16364;52.490;13.326;2023-07-13T02:58:37;2.60;;;2.40;;
29380;SDS011;16364;52.490;13.326;2023-07-13T03:01:08;2.93;;;2.50;;
29380;SDS011;16364;52.490;13.326;2023-07-13T03:03:33;4.63;;;4.27;;
29380;SDS011;16364;52.490;13.326;2023-07-13T03:05:59;3.00;;;2.47;;
29380;SDS011;16364;52.490;13.326;2023-07-13T03:08:25;2.93;;;2.47;;
29380;SDS011;16364;52.490;13.326;2023-07-13T03:10:58;7.33;;;3.30;;
29380;SDS011;16364;52.490;13.326;2023-07-13T03:13:24;3.00;;;2.20;;
29380;SDS011;16364;52.490;13.326;2023-07-13T03:15:49;2.90;;;2.70;;
29380;SDS011;16364;52.490;13.326;2023-07-13T03:18:14;2.60;;;2.40;;
29380;SDS011;16364;52.490;13.326;2023-07-13T03:20:39;2.90;;;2.63;;
29380;SDS011;16364;52.490;13.326;2023-07-13T03:23:04;2.73;;;2.10;;
29380;SDS011;16364;52.490;13.326;2023-07-13T03:25:30;7.63;;;2.30;;
29380;SDS011;16364;52.490;13.326;2023-07-13T03:27:55;3.70;;;2.90;;
29380;SDS011;16364;52.490;13.326;2023-07-13T03:30:20;2.90;;;2.60;;
29380;SDS011;16364;52.490;13.326;2023-07-13T03:32:47;3.47;;;3.20;;
29380;SDS011;16364;52.490;13.326;2023-07-13T03:35:12;3.10;;;2.30;;
29380;SDS011;16364;52.490;13.326;2023-07-13T03:37:37;3.27;;;2.97;;
29380;SDS011;16364;52.490;13.326;2023-07-13T03:40:07;3.80;;;2.60;;
29380;SDS011;16364;52.490;13.326;2023-07-13T03:42:34;4.00;;;3.17;;
29380;SDS011;16364;52.490;13.326;2023-07-13T03:44:59;2.60;;;2.40;;
29380;SDS011;16364;52.490;13.326;2023-07-13T03:47:24;2.50;;;2.30;;
29380;SDS011;16364;52.490;13.326;2023-07-13T03:49:49;2.57;;;2.37;;
29380;SDS011;16364;52.490;13.326;2023-07-13T03:52:15;4.73;;;2.80;;
29380;SDS011;16364;52.490;13.326;2023-07-13T03:54:40;2.60;;;2.40;;
29380;SDS011;16364;52.490;13.326;2023-07-13T03:57:05;3.23;;;2.33;;
29380;SDS011;16364;52.490;13.326;2023-07-13T03:59:31;5.03;;;2.47;;
29380;SDS011;16364;52.490;13.326;2023-07-13T04:01:56;2.60;;;2.40;;
29380;SDS011;16364;52.490;13.326;2023-07-13T04:04:22;2.77;;;2.20;;
29380;SDS011;16364;52.490;13.326;2023-07-13T04:06:47;2.30;;;2.20;;
29380;SDS011;16364;52.490;13.326;2023-07-13T04:09:12;2.20;;;2.00;;
29380;SDS011;16364;52.490;13.326;2023-07-13T04:11:37;3.33;;;2.40;;
29380;SDS011;16364;52.490;13.326;2023-07-13T04:14:03;5.93;;;2.30;;
29380;SDS011;16364;52.490;13.326;2023-07-13T04:16:28;2.27;;;2.07;;
29380;SDS011;16364;52.490;13.326;2023-07-13T04:18:54;2.93;;;2.33;;
29380;SDS011;16364;52.490;13.326;2023-07-13T04:21:24;3.30;;;3.00;;
29380;SDS011;16364;52.490;13.326;2023-07-13T04:23:49;3.73;;;2.80;;
29380;SDS011;16364;52.490;13.326;2023-07-13T04:26:15;2.20;;;2.00;;
29380;SDS011;16364;52.490;13.326;2023-07-13T04:28:41;4.27;;;2.70;;
29380;SDS011;16364;52.490;13.326;2023-07-13T04:31:06;5.00;;;2.80;;
29380;SDS011;16364;52.490;13.326;2023-07-13T04:33:31;2.83;;;2.63;;
29380;SDS011;16364;52.490;13.326;2023-07-13T04:35:56;3.30;;;2.20;;
29380;SDS011;16364;52.490;13.326;2023-07-13T04:38:23;4.13;;;2.17;;
29380;SDS011;16364;52.490;13.326;2023-07-13T04:40:50;2.93;;;2.37;;
29380;SDS011;16364;52.490;13.326;2023-07-13T04:43:16;4.23;;;3.60;;
29380;SDS011;16364;52.490;13.326;2023-07-13T04:45:41;2.60;;;2.40;;
29380;SDS011;16364;52.490;13.326;2023-07-13T04:48:06;2.30;;;2.10;;
29380;SDS011;16364;52.490;13.326;2023-07-13T04:50:31;3.10;;;2.60;;
29380;SDS011;16364;52.490;13.326;2023-07-13T04:52:57;2.67;;;1.90;;
29380;SDS011;16364;52.490;13.326;2023-07-13T04:55:23;6.13;;;2.67;;
29380;SDS011;16364;52.490;13.326;2023-07-13T04:57:48;2.90;;;2.50;;
29380;SDS011;16364;52.490;13.326;2023-07-13T05:00:14;3.30;;;2.30;;
29380;SDS011;16364;52.490;13.326;2023-07-13T05:02:41;3.00;;;2.30;;
29380;SDS011;16364;52.490;13.326;2023-07-13T05:05:08;3.27;;;2.50;;
29380;SDS011;16364;52.490;13.326;2023-07-13T05:07:33;2.80;;;2.50;;
29380;SDS011;16364;52.490;13.326;2023-07-13T05:09:59;3.03;;;2.30;;
29380;SDS011;16364;52.490;13.326;2023-07-13T05:12:25;3.40;;;2.47;;
29380;SDS011;16364;52.490;13.326;2023-07-13T05:14:50;2.77;;;2.43;;
29380;SDS011;16364;52.490;13.326;2023-07-13T05:17:15;2.90;;;2.70;;
29380;SDS011;16364;52.490;13.326;2023-07-13T05:19:41;3.20;;;2.57;;
29380;SDS011;16364;52.490;13.326;2023-07-13T05:22:06;2.70;;;2.47;;
29380;SDS011;16364;52.490;13.326;2023-07-13T05:24:31;2.53;;;2.10;;
29380;SDS011;16364;52.490;13.326;2023-07-13T05:26:56;4.43;;;2.73;;
29380;SDS011;16364;52.490;13.326;2023-07-13T05:29:22;3.77;;;2.67;;
29380;SDS011;16364;52.490;13.326;2023-07-13T05:31:48;3.73;;;2.63;;
29380;SDS011;16364;52.490;13.326;2023-07-13T05:34:13;2.10;;;1.90;;
29380;SDS011;16364;52.490;13.326;2023-07-13T05:36:40;2.27;;;2.10;;
29380;SDS011;16364;52.490;13.326;2023-07-13T05:39:05;3.10;;;2.50;;
29380;SDS011;16364;52.490;13.326;2023-07-13T05:41:30;2.53;;;2.20;;
29380;SDS011;16364;52.490;13.326;2023-07-13T05:43:56;3.23;;;2.40;;
29380;SDS011;16364;52.490;13.326;2023-07-13T05:46:21;3.73;;;2.40;;
29380;SDS011;16364;52.490;13.326;2023-07-13T05:48:46;6.90;;;2.70;;
29380;SDS011;16364;52.490;13.326;2023-07-13T05:51:12;2.37;;;2.17;;
29380;SDS011;16364;52.490;13.326;2023-07-13T05:53:37;2.70;;;2.33;;
29380;SDS011;16364;52.490;13.326;2023-07-13T05:56:02;4.70;;;2.53;;
29380;SDS011;16364;52.490;13.326;2023-07-13T05:58:27;2.73;;;2.20;;
29380;SDS011;16364;52.490;13.326;2023-07-13T06:01:26;3.00;;;2.30;;
29380;SDS011;16364;52.490;13.326;2023-07-13T06:03:46;2.60;;;2.30;;
29380;SDS011;16364;52.490;13.326;2023-07-13T06:06:11;2.77;;;2.00;;
29380;SDS011;16364;52.490;13.326;2023-07-13T06:08:36;9.67;;;2.97;;
29380;SDS011;16364;52.490;13.326;2023-07-13T06:11:03;3.60;;;2.10;;
29380;SDS011;16364;52.490;13.326;2023-07-13T06:13:28;8.20;;;2.70;;
29380;SDS011;16364;52.490;13.326;2023-07-13T06:15:53;4.50;;;2.73;;
29380;SDS011;16364;52.490;13.326;2023-07-13T06:18:19;2.87;;;1.83;;
29380;SDS011;16364;52.490;13.326;2023-07-13T06:20:44;2.40;;;2.10;;
29380;SDS011;16364;52.490;13.326;2023-07-13T06:23:09;2.90;;;2.10;;
29380;SDS011;16364;52.490;13.326;2023-07-13T06:25:34;4.60;;;1.90;;
29380;SDS011;16364;52.490;13.326;2023-07-13T06:28:00;2.43;;;2.23;;
29380;SDS011;16364;52.490;13.326;2023-07-13T06:30:25;3.73;;;2.30;;
29380;SDS011;16364;52.490;13.326;2023-07-13T06:32:50;3.10;;;2.20;;
29380;SDS011;16364;52.490;13.326;2023-07-13T06:35:16;4.30;;;1.97;;
29380;SDS011;16364;52.490;13.326;2023-07-13T06:37:41;6.10;;;2.10;;
29380;SDS011;16364;52.490;13.326;2023-07-13T06:40:06;2.90;;;1.93;;
29380;SDS011;16364;52.490;13.326;2023-07-13T06:42:32;2.70;;;2.03;;
29380;SDS011;16364;52.490;13.326;2023-07-13T06:44:57;3.30;;;1.70;;
29380;SDS011;16364;52.490;13.326;2023-07-13T06:47:22;3.30;;;2.07;;
29380;SDS011;16364;52.490;13.326;2023-07-13T06:49:47;5.17;;;2.10;;
29380;SDS011;16364;52.490;13.326;2023-07-13T06:52:13;4.83;;;1.60;;
29380;SDS011;16364;52.490;13.326;2023-07-13T06:54:39;2.10;;;1.90;;
29380;SDS011;16364;52.490;13.326;2023-07-13T06:57:04;1.90;;;1.70;;
29380;SDS011;16364;52.490;13.326;2023-07-13T06:59:29;3.13;;;2.13;;
29380;SDS011;16364;52.490;13.326;2023-07-13T07:01:54;2.23;;;1.87;;
29380;SDS011;16364;52.490;13.326;2023-07-13T07:04:20;2.90;;;1.60;;
29380;SDS011;16364;52.490;13.326;2023-07-13T07:06:45;8.20;;;3.80;;
29380;SDS011;16364;52.490;13.326;2023-07-13T07:09:10;2.27;;;1.43;;
29380;SDS011;16364;52.490;13.326;2023-07-13T07:11:36;2.40;;;1.50;;
29380;SDS011;16364;52.490;13.326;2023-07-13T07:14:01;3.13;;;1.57;;
29380;SDS011;16364;52.490;13.326;2023-07-13T07:16:26;3.10;;;1.40;;
29380;SDS011;16364;52.490;13.326;2023-07-13T07:18:51;4.40;;;1.90;;
29380;SDS011;16364;52.490;13.326;2023-07-13T07:21:17;1.90;;;1.37;;
29380;SDS011;16364;52.490;13.326;2023-07-13T07:23:43;4.03;;;1.70;;
29380;SDS011;16364;52.490;13.326;2023-07-13T07:26:09;1.47;;;1.37;;
29380;SDS011;16364;52.490;13.326;2023-07-13T07:28:35;2.10;;;1.30;;
29380;SDS011;16364;52.490;13.326;2023-07-13T07:31:00;1.63;;;1.53;;
29380;SDS011;16364;52.490;13.326;2023-07-13T07:33:26;2.50;;;1.47;;
29380;SDS011;16364;52.490;13.326;2023-07-13T07:35:51;1.83;;;1.70;;
29380;SDS011;16364;52.490;13.326;2023-07-13T07:38:17;1.87;;;1.40;;
29380;SDS011;16364;52.490;13.326;2023-07-13T07:40:42;1.60;;;1.50;;
29380;SDS011;16364;52.490;13.326;2023-07-13T07:43:08;1.97;;;1.50;;
29380;SDS011;16364;52.490;13.326;2023-07-13T07:45:33;2.37;;;1.33;;
29380;SDS011;16364;52.490;13.326;2023-07-13T07:47:59;3.63;;;1.80;;
29380;SDS011;16364;52.490;13.326;2023-07-13T07:50:25;2.57;;;1.90;;
29380;SDS011;16364;52.490;13.326;2023-07-13T07:52:50;3.87;;;1.43;;
29380;SDS011;16364;52.490;13.326;2023-07-13T07:55:15;3.60;;;2.20;;
29380;SDS011;16364;52.490;13.326;2023-07-13T07:57:41;1.63;;;1.50;;
29380;SDS011;16364;52.490;13.326;2023-07-13T08:00:06;2.67;;;1.53;;
29380;SDS011;16364;52.490;13.326;2023-07-13T08:02:32;1.73;;;1.53;;
29380;SDS011;16364;52.490;13.326;2023-07-13T08:04:57;4.93;;;1.70;;
29380;SDS011;16364;52.490;13.326;2023-07-13T08:07:22;3.10;;;1.40;;
29380;SDS011;16364;52.490;13.326;2023-07-13T08:09:47;4.83;;;1.50;;
29380;SDS011;16364;52.490;13.326;2023-07-13T08:12:17;1.90;;;1.30;;
29380;SDS011;16364;52.490;13.326;2023-07-13T08:14:42;2.80;;;1.77;;
29380;SDS011;16364;52.490;13.326;2023-07-13T08:17:07;2.90;;;1.80;;
29380;SDS011;16364;52.490;13.326;2023-07-13T08:19:33;3.30;;;1.20;;
29380;SDS011;16364;52.490;13.326;2023-07-13T08:21:58;2.80;;;1.57;;
29380;SDS011;16364;52.490;13.326;2023-07-13T08:24:23;2.73;;;1.63;;
29380;SDS011;16364;52.490;13.326;2023-07-13T08:26:48;1.80;;;1.70;;
29380;SDS011;16364;52.490;13.326;2023-07-13T08:29:15;1.70;;;1.60;;
29380;SDS011;16364;52.490;13.326;2023-07-13T08:31:40;2.77;;;1.60;;
29380;SDS011;16364;52.490;13.326;2023-07-13T08:34:05;2.37;;;1.70;;
29380;SDS011;16364;52.490;13.326;2023-07-13T08:36:31;2.20;;;1.50;;
29380;SDS011;16364;52.490;13.326;2023-07-13T08:38:56;2.27;;;1.70;;
29380;SDS011;16364;52.490;13.326;2023-07-13T08:41:21;6.30;;;1.90;;
29380;SDS011;16364;52.490;13.326;2023-07-13T08:43:51;3.13;;;1.70;;
29380;SDS011;16364;52.490;13.326;2023-07-13T08:46:50;2.50;;;1.60;;
29380;SDS011;16364;52.490;13.326;2023-07-13T08:49:10;5.97;;;1.40;;
29380;SDS011;16364;52.490;13.326;2023-07-13T08:51:50;2.80;;;1.60;;
29380;SDS011;16364;52.490;13.326;2023-07-13T08:54:29;3.00;;;1.60;;
29380;SDS011;16364;52.490;13.326;2023-07-13T08:56:55;1.63;;;1.37;;
29380;SDS011;16364;52.490;13.326;2023-07-13T08:59:22;1.70;;;1.37;;
29380;SDS011;16364;52.490;13.326;2023-07-13T09:04:22;2.67;;;1.23;;
29380;SDS011;16364;52.490;13.326;2023-07-13T09:06:55;2.93;;;1.20;;
29380;SDS011;16364;52.490;13.326;2023-07-13T09:11:51;1.60;;;1.37;;
29380;SDS011;16364;52.490;13.326;2023-07-13T09:17:05;2.13;;;1.30;;
29380;SDS011;16364;52.490;13.326;2023-07-13T09:19:33;1.30;;;1.20;;
29380;SDS011;16364;52.490;13.326;2023-07-13T09:22:01;2.47;;;1.40;;
29380;SDS011;16364;52.490;13.326;2023-07-13T09:24:37;2.20;;;1.13;;
29380;SDS011;16364;52.490;13.326;2023-07-13T09:27:11;1.83;;;1.10;;
29380;SDS011;16364;52.490;13.326;2023-07-13T09:29:38;2.27;;;1.20;;
29380;SDS011;16364;52.490;13.326;2023-07-13T09:32:09;2.50;;;1.50;;
29380;SDS011;16364;52.490;13.326;2023-07-13T09:34:35;2.87;;;1.50;;
29380;SDS011;16364;52.490;13.326;2023-07-13T09:37:01;2.37;;;1.77;;
29380;SDS011;16364;52.490;13.326;2023-07-13T09:39:27;2.40;;;1.83;;
29380;SDS011;16364;52.490;13.326;2023-07-13T09:44:33;3.33;;;2.03;;
29380;SDS011;16364;52.490;13.326;2023-07-13T09:46:59;4.47;;;2.10;;
29380;SDS011;16364;52.490;13.326;2023-07-13T09:49:34;1.90;;;1.80;;
29380;SDS011;16364;52.490;13.326;2023-07-13T09:52:09;2.37;;;1.73;;
29380;SDS011;16364;52.490;13.326;2023-07-13T09:54:36;4.23;;;2.83;;
29380;SDS011;16364;52.490;13.326;2023-07-13T09:57:02;3.20;;;2.20;;
29380;SDS011;16364;52.490;13.326;2023-07-13T09:59:35;7.07;;;2.87;;
29380;SDS011;16364;52.490;13.326;2023-07-13T10:02:01;2.57;;;2.27;;
29380;SDS011;16364;52.490;13.326;2023-07-13T10:04:31;2.27;;;2.07;;
29380;SDS011;16364;52.490;13.326;2023-07-13T10:07:07;4.63;;;2.73;;
29380;SDS011;16364;52.490;13.326;2023-07-13T10:09:33;3.43;;;2.40;;
29380;SDS011;16364;52.490;13.326;2023-07-13T10:11:58;2.60;;;2.40;;
29380;SDS011;16364;52.490;13.326;2023-07-13T10:14:23;3.20;;;2.37;;
29380;SDS011;16364;52.490;13.326;2023-07-13T10:16:51;2.70;;;2.03;;
29380;SDS011;16364;52.490;13.326;2023-07-13T10:19:19;2.10;;;1.90;;
29380;SDS011;16364;52.490;13.326;2023-07-13T10:21:56;4.37;;;2.13;;
29380;SDS011;16364;52.490;13.326;2023-07-13T10:24:25;2.77;;;2.33;;
29380;SDS011;16364;52.490;13.326;2023-07-13T10:27:13;6.20;;;2.40;;
29380;SDS011;16364;52.490;13.326;2023-07-13T10:29:37;6.50;;;2.43;;
29380;SDS011;16364;52.490;13.326;2023-07-13T10:32:07;5.07;;;2.60;;
29380;SDS011;16364;52.490;13.326;2023-07-13T10:34:33;2.60;;;2.17;;
29380;SDS011;16364;52.490;13.326;2023-07-13T10:36:59;5.23;;;2.17;;
29380;SDS011;16364;52.490;13.326;2023-07-13T10:39:26;4.67;;;2.50;;
29380;SDS011;16364;52.490;13.326;2023-07-13T10:41:53;3.13;;;2.03;;
29380;SDS011;16364;52.490;13.326;2023-07-13T10:44:29;2.90;;;2.13;;
29380;SDS011;16364;52.490;13.326;2023-07-13T10:47:07;2.93;;;1.90;;
29380;SDS011;16364;52.490;13.326;2023-07-13T10:49:33;4.83;;;2.20;;
29380;SDS011;16364;52.490;13.326;2023-07-13T10:52:00;2.33;;;2.07;;
29380;SDS011;16364;52.490;13.326;2023-07-13T10:54:26;3.50;;;2.10;;
29380;SDS011;16364;52.490;13.326;2023-07-13T10:56:53;4.20;;;1.87;;
29380;SDS011;16364;52.490;13.326;2023-07-13T10:59:31;2.47;;;2.27;;
29380;SDS011;16364;52.490;13.326;2023-07-13T11:01:58;2.10;;;1.90;;
29380;SDS011;16364;52.490;13.326;2023-07-13T11:04:42;5.17;;;2.80;;
29380;SDS011;16364;52.490;13.326;2023-07-13T11:07:19;3.23;;;2.10;;
29380;SDS011;16364;52.490;13.326;2023-07-13T11:09:44;2.43;;;2.13;;
29380;SDS011;16364;52.490;13.326;2023-07-13T11:15:05;5.00;;;2.30;;
29380;SDS011;16364;52.490;13.326;2023-07-13T11:19:56;2.50;;;2.30;;
29380;SDS011;16364;52.490;13.326;2023-07-13T11:23:07;3.07;;;2.20;;
29380;SDS011;16364;52.490;13.326;2023-07-13T11:25:31;1.80;;;1.70;;
29380;SDS011;16364;52.490;13.326;2023-07-13T11:35:32;4.30;;;2.33;;
29380;SDS011;16364;52.490;13.326;2023-07-13T11:37:58;5.90;;;2.60;;
29380;SDS011;16364;52.490;13.326;2023-07-13T11:40:25;2.23;;;2.00;;
29380;SDS011;16364;52.490;13.326;2023-07-13T11:42:52;4.80;;;2.33;;
29380;SDS011;16364;52.490;13.326;2023-07-13T11:45:21;3.93;;;2.20;;
29380;SDS011;16364;52.490;13.326;2023-07-13T11:47:49;3.50;;;2.00;;
29380;SDS011;16364;52.490;13.326;2023-07-13T11:50:21;4.33;;;1.87;;
29380;SDS011;16364;52.490;13.326;2023-07-13T11:52:47;5.70;;;2.00;;
29380;SDS011;16364;52.490;13.326;2023-07-13T11:55:15;4.67;;;1.60;;
29380;SDS011;16364;52.490;13.326;2023-07-13T11:57:43;2.80;;;1.90;;
29380;SDS011;16364;52.490;13.326;2023-07-13T12:00:17;4.90;;;2.20;;
29380;SDS011;16364;52.490;13.326;2023-07-13T12:02:43;2.57;;;1.70;;
29380;SDS011;16364;52.490;13.326;2023-07-13T12:05:13;2.23;;;1.70;;
29380;SDS011;16364;52.490;13.326;2023-07-13T12:07:39;2.57;;;2.00;;
29380;SDS011;16364;52.490;13.326;2023-07-13T12:12:33;2.60;;;1.60;;
29380;SDS011;16364;52.490;13.326;2023-07-13T12:14:58;4.10;;;2.10;;
29380;SDS011;16364;52.490;13.326;2023-07-13T12:17:24;2.30;;;1.70;;
29380;SDS011;16364;52.490;13.326;2023-07-13T12:19:50;4.20;;;1.90;;
29380;SDS011;16364;52.490;13.326;2023-07-13T12:22:16;3.43;;;1.70;;
29380;SDS011;16364;52.490;13.326;2023-07-13T12:24:41;2.83;;;1.90;;
29380;SDS011;16364;52.490;13.326;2023-07-13T12:27:41;2.50;;;1.80;;
29380;SDS011;16364;52.490;13.326;2023-07-13T12:30:00;1.90;;;1.70;;
29380;SDS011;16364;52.490;13.326;2023-07-13T12:32:26;2.57;;;1.60;;
29380;SDS011;16364;52.490;13.326;2023-07-13T12:34:52;2.70;;;1.73;;
29380;SDS011;16364;52.490;13.326;2023-07-13T12:37:18;3.33;;;1.87;;
29380;SDS011;16364;52.490;13.326;2023-07-13T12:39:44;2.90;;;1.60;;
29380;SDS011;16364;52.490;13.326;2023-07-13T12:42:18;3.90;;;1.70;;
29380;SDS011;16364;52.490;13.326;2023-07-13T12:44:45;2.20;;;1.57;;
29380;SDS011;16364;52.490;13.326;2023-07-13T12:47:11;2.00;;;1.50;;
29380;SDS011;16364;52.490;13.326;2023-07-13T12:49:40;2.60;;;1.70;;
29380;SDS011;16364;52.490;13.326;2023-07-13T12:52:13;3.73;;;1.80;;
29380;SDS011;16364;52.490;13.326;2023-07-13T12:54:39;1.67;;;1.50;;
29380;SDS011;16364;52.490;13.326;2023-07-13T12:57:04;1.50;;;1.40;;
29380;SDS011;16364;52.490;13.326;2023-07-13T12:59:34;1.73;;;1.40;;
29380;SDS011;16364;52.490;13.326;2023-07-13T13:02:01;5.60;;;1.40;;
29380;SDS011;16364;52.490;13.326;2023-07-13T13:04:27;1.77;;;1.60;;
29380;SDS011;16364;52.490;13.326;2023-07-13T13:07:03;3.63;;;1.60;;
29380;SDS011;16364;52.490;13.326;2023-07-13T13:09:29;5.40;;;1.50;;
29380;SDS011;16364;52.490;13.326;2023-07-13T13:11:54;2.93;;;1.50;;
29380;SDS011;16364;52.490;13.326;2023-07-13T13:14:19;3.50;;;1.60;;
29380;SDS011;16364;52.490;13.326;2023-07-13T13:16:46;2.50;;;1.50;;
29380;SDS011;16364;52.490;13.326;2023-07-13T13:19:24;3.27;;;1.50;;
29380;SDS011;16364;52.490;13.326;2023-07-13T13:21:50;1.80;;;1.40;;
29380;SDS011;16364;52.490;13.326;2023-07-13T13:24:18;2.33;;;1.40;;
29380;SDS011;16364;52.490;13.326;2023-07-13T13:26:45;2.57;;;1.40;;
29380;SDS011;16364;52.490;13.326;2023-07-13T13:29:14;2.20;;;1.40;;
29380;SDS011;16364;52.490;13.326;2023-07-13T13:31:40;1.40;;;1.30;;
29380;SDS011;16364;52.490;13.326;2023-07-13T13:34:07;2.97;;;1.50;;
29380;SDS011;16364;52.490;13.326;2023-07-13T13:36:33;2.87;;;1.47;;
29380;SDS011;16364;52.490;13.326;2023-07-13T13:38:58;3.03;;;1.40;;
29380;SDS011;16364;52.490;13.326;2023-07-13T13:41:23;2.50;;;1.47;;
29380;SDS011;16364;52.490;13.326;2023-07-13T13:43:48;3.20;;;1.40;;
29380;SDS011;16364;52.490;13.326;2023-07-13T13:46:15;1.50;;;1.13;;
29380;SDS011;16364;52.490;13.326;2023-07-13T13:48:41;1.63;;;1.43;;
29380;SDS011;16364;52.490;13.326;2023-07-13T13:51:14;2.50;;;1.30;;
29380;SDS011;16364;52.490;13.326;2023-07-13T13:53:40;6.63;;;1.67;;
29380;SDS011;16364;52.490;13.326;2023-07-13T13:56:05;2.30;;;1.50;;
29380;SDS011;16364;52.490;13.326;2023-07-13T13:58:31;3.70;;;1.30;;
29380;SDS011;16364;52.490;13.326;2023-07-13T14:00:56;3.73;;;1.13;;
29380;SDS011;16364;52.490;13.326;2023-07-13T14:03:23;2.33;;;1.40;;
29380;SDS011;16364;52.490;13.326;2023-07-13T14:05:48;1.50;;;1.30;;
29380;SDS011;16364;52.490;13.326;2023-07-13T14:08:15;1.20;;;1.03;;
29380;SDS011;16364;52.490;13.326;2023-07-13T14:10:40;1.30;;;1.00;;
29380;SDS011;16364;52.490;13.326;2023-07-13T14:13:07;1.90;;;1.50;;
29380;SDS011;16364;52.490;13.326;2023-07-13T14:15:39;4.03;;;1.50;;
29380;SDS011;16364;52.490;13.326;2023-07-13T14:18:04;1.93;;;1.13;;
29380;SDS011;16364;52.490;13.326;2023-07-13T14:20:30;1.60;;;1.20;;
29380;SDS011;16364;52.490;13.326;2023-07-13T14:22:55;2.50;;;1.37;;
29380;SDS011;16364;52.490;13.326;2023-07-13T14:25:20;3.37;;;1.30;;
29380;SDS011;16364;52.490;13.326;2023-07-13T14:27:47;1.50;;;1.40;;
29380;SDS011;16364;52.490;13.326;2023-07-13T14:30:14;2.07;;;1.20;;
29380;SDS011;16364;52.490;13.326;2023-07-13T14:32:40;1.60;;;1.30;;
29380;SDS011;16364;52.490;13.326;2023-07-13T14:35:05;3.83;;;1.50;;
29380;SDS011;16364;52.490;13.326;2023-07-13T14:37:30;2.53;;;1.20;;
29380;SDS011;16364;52.490;13.326;2023-07-13T14:39:56;5.27;;;1.40;;
29380;SDS011;16364;52.490;13.326;2023-07-13T14:42:21;1.57;;;1.23;;
29380;SDS011;16364;52.490;13.326;2023-07-13T14:44:46;1.20;;;1.10;;
29380;SDS011;16364;52.490;13.326;2023-07-13T14:47:11;2.00;;;1.33;;
29380;SDS011;16364;52.490;13.326;2023-07-13T14:49:38;4.43;;;1.10;;
29380;SDS011;16364;52.490;13.326;2023-07-13T14:52:15;1.10;;;1.00;;
29380;SDS011;16364;52.490;13.326;2023-07-13T14:54:41;1.40;;;1.10;;
29380;SDS011;16364;52.490;13.326;2023-07-13T14:57:11;2.30;;;1.20;;
29380;SDS011;16364;52.490;13.326;2023-07-13T14:59:37;2.93;;;1.13;;